createdAt,value
2018-01-23T00:00:31.510Z,52.00
2018-01-23T00:02:59.013Z,46.63
2018-01-23T00:05:26.617Z,48.20
2018-01-23T00:07:54.200Z,49.00
2018-01-23T00:10:21.777Z,52.97
2018-01-23T00:12:49.418Z,47.72
2018-01-23T00:15:17.003Z,46.00
2018-01-23T00:17:44.633Z,43.40
2018-01-23T00:20:12.281Z,49.75
2018-01-23T00:22:39.823Z,53.90
2018-01-23T00:25:07.564Z,52.92
2018-01-23T00:27:35.324Z,57.20
2018-01-23T00:30:03.014Z,55.17
2018-01-23T00:32:30.556Z,62.62
2018-01-23T00:34:58.158Z,61.10
2018-01-23T00:37:25.734Z,57.70
2018-01-23T00:39:54.179Z,57.72
2018-01-23T00:42:21.739Z,63.90
2018-01-23T00:44:49.244Z,58.28
2018-01-23T00:47:16.818Z,63.72
2018-01-23T00:49:44.449Z,61.97
2018-01-23T00:52:12.171Z,71.43
2018-01-23T00:54:40.369Z,60.05
2018-01-23T00:57:07.998Z,56.72
2018-01-23T00:59:35.570Z,67.18
2018-01-23T01:02:03.620Z,63.70
2018-01-23T01:04:31.408Z,62.58
2018-01-23T01:06:59.061Z,62.25
2018-01-23T01:09:26.791Z,60.35
2018-01-23T01:11:54.424Z,48.80
2018-01-23T01:14:22.126Z,50.47
2018-01-23T01:16:49.812Z,53.10
2018-01-23T01:19:18.596Z,47.40
2018-01-23T01:21:46.427Z,57.60
2018-01-23T01:24:22.807Z,52.83
2018-01-23T01:26:50.554Z,49.38
2018-01-23T01:29:18.957Z,46.35
2018-01-23T01:37:22.879Z,47.75
2018-01-23T01:39:50.748Z,53.58
2018-01-23T01:42:18.438Z,50.20
2018-01-23T01:44:55.639Z,47.55
2018-01-23T01:47:29.503Z,48.72
2018-01-23T01:49:57.141Z,42.88
2018-01-23T01:52:24.962Z,43.22
2018-01-23T01:54:52.600Z,50.10
2018-01-23T01:57:20.385Z,50.00
2018-01-23T01:59:48.622Z,41.92
2018-01-23T02:02:16.313Z,43.35
2018-01-23T02:04:43.964Z,45.75
2018-01-23T02:07:13.764Z,50.67
2018-01-23T06:16:55.460Z,38.65
2018-01-23T06:19:42.804Z,47.45
2018-01-23T06:22:26.511Z,44.35
2018-01-23T06:25:10.079Z,41.70
2018-01-23T06:27:38.602Z,44.80
2018-01-23T06:33:05.646Z,44.72
2018-01-23T06:35:33.104Z,37.45
2018-01-23T06:38:00.568Z,37.17
2018-01-23T06:40:28.014Z,41.30
2018-01-23T06:42:55.473Z,46.88
2018-01-23T06:45:23.207Z,40.00
2018-01-23T06:47:51.778Z,36.55
2018-01-23T06:50:20.019Z,39.28
2018-01-23T06:52:47.470Z,46.15
2018-01-23T06:55:14.936Z,54.65
2018-01-23T06:57:42.414Z,55.33
2018-01-23T07:00:10.907Z,58.78
2018-01-23T07:02:38.529Z,54.33
2018-01-23T07:05:06.548Z,53.90
2018-01-23T07:07:34.092Z,66.30
2018-01-23T07:10:01.573Z,55.72
2018-01-23T07:12:29.050Z,62.45
2018-01-23T07:14:56.518Z,60.28
2018-01-23T07:17:24.037Z,70.75
2018-01-23T07:19:51.505Z,50.00
2018-01-23T07:22:19.004Z,56.15
2018-01-23T07:24:46.469Z,54.50
2018-01-23T07:27:13.956Z,53.25
2018-01-23T07:29:41.462Z,53.15
2018-01-23T07:32:08.947Z,47.00
2018-01-23T07:34:36.442Z,57.28
2018-01-23T07:37:04.085Z,52.58
2018-01-23T07:39:31.605Z,45.33
2018-01-23T07:41:59.070Z,51.58
2018-01-23T07:44:26.572Z,52.15
2018-01-23T07:46:54.033Z,56.08
2018-01-23T07:49:21.537Z,44.15
2018-01-23T07:51:49.031Z,50.92
2018-01-23T07:54:16.485Z,54.17
2018-01-23T07:56:44.708Z,52.17
2018-01-23T07:59:12.173Z,56.53
2018-01-23T08:01:41.167Z,76.47
2018-01-23T08:04:08.622Z,50.92
2018-01-23T08:06:36.067Z,49.78
2018-01-23T08:09:03.533Z,48.35
2018-01-23T08:11:31.038Z,46.63
2018-01-23T08:13:58.493Z,44.17
2018-01-23T08:16:25.945Z,48.33
2018-01-23T08:18:54.195Z,45.15
2018-01-23T08:21:21.704Z,44.50
2018-01-23T08:23:49.104Z,44.72
2018-01-23T08:26:16.565Z,48.30
2018-01-23T08:28:44.213Z,39.85
2018-01-23T08:31:11.704Z,51.28
2018-01-23T08:33:39.191Z,43.95
2018-01-23T08:36:06.696Z,42.30
2018-01-23T08:38:34.173Z,46.58
2018-01-23T08:41:01.656Z,42.00
2018-01-23T08:43:29.119Z,44.53
2018-01-23T08:45:56.571Z,47.97
2018-01-23T08:48:24.023Z,45.95
2018-01-23T08:50:52.252Z,42.53
2018-01-23T08:53:19.759Z,44.22
2018-01-23T08:55:47.214Z,47.62
2018-01-23T08:58:15.456Z,48.10
2018-01-23T09:00:42.930Z,40.65
2018-01-23T09:03:10.393Z,41.97
2018-01-23T09:05:37.849Z,45.42
2018-01-23T09:08:06.094Z,40.78
2018-01-23T09:10:33.557Z,43.22
2018-01-23T09:13:01.837Z,46.17
2018-01-23T09:15:29.310Z,40.75
2018-01-23T09:17:57.540Z,43.75
2018-01-23T09:20:25.001Z,53.47
2018-01-23T09:22:52.460Z,50.08
2018-01-23T09:25:19.946Z,52.13
2018-01-23T09:27:47.397Z,51.65
2018-01-23T09:30:14.877Z,43.95
2018-01-23T09:32:43.100Z,61.35
2018-01-23T09:35:10.816Z,49.88
2018-01-23T09:37:38.317Z,44.85
2018-01-23T09:40:05.779Z,62.33
2018-01-23T09:42:33.242Z,59.03
2018-01-23T09:45:00.735Z,44.47
2018-01-23T09:47:28.222Z,46.05
2018-01-23T09:49:55.712Z,40.03
2018-01-23T09:52:23.173Z,45.25
2018-01-23T09:54:50.661Z,49.47
2018-01-23T09:57:18.145Z,61.05
2018-01-23T09:59:45.653Z,55.78
2018-01-23T10:02:13.105Z,50.83
2018-01-23T10:04:40.562Z,50.53
2018-01-23T10:07:08.051Z,43.75
2018-01-23T10:09:35.529Z,43.47
2018-01-23T10:12:02.990Z,53.30
2018-01-23T10:14:30.443Z,41.70
2018-01-23T10:16:57.917Z,49.45
2018-01-23T10:19:25.392Z,51.35
2018-01-23T10:21:52.859Z,47.83
2018-01-23T10:24:20.351Z,58.28
2018-01-23T10:26:47.814Z,41.58
2018-01-23T10:29:17.114Z,52.62
2018-01-23T10:31:45.386Z,47.42
2018-01-23T10:34:12.855Z,55.35
2018-01-23T10:36:41.125Z,54.17
2018-01-23T10:39:08.610Z,60.47
2018-01-23T10:41:36.112Z,58.85
2018-01-23T10:44:03.620Z,63.65
2018-01-23T10:46:31.154Z,47.03
2018-01-23T10:48:58.650Z,58.35
2018-01-23T10:51:26.172Z,62.53
2018-01-23T10:53:54.467Z,56.15
2018-01-23T10:56:21.962Z,54.17
2018-01-23T10:58:49.430Z,54.63
2018-01-23T11:01:16.916Z,58.45
2018-01-23T11:03:44.458Z,67.70
2018-01-23T11:06:11.917Z,63.35
2018-01-23T11:08:39.391Z,62.58
2018-01-23T11:11:06.882Z,71.03
2018-01-23T11:13:34.403Z,74.97
2018-01-23T11:16:02.995Z,60.92
2018-01-23T11:18:30.598Z,79.57
2018-01-23T11:20:58.078Z,59.35
2018-01-23T11:23:25.571Z,60.10
2018-01-23T11:25:53.033Z,67.22
2018-01-23T11:28:20.482Z,66.10
2018-01-23T11:30:47.947Z,62.88
2018-01-23T11:33:15.429Z,63.25
2018-01-23T11:35:42.901Z,64.30
2018-01-23T11:38:10.396Z,60.53
2018-01-23T11:40:37.844Z,59.28
2018-01-23T11:43:05.310Z,71.75
2018-01-23T11:45:32.767Z,65.65
2018-01-23T11:48:00.222Z,55.47
2018-01-23T11:50:27.686Z,55.70
2018-01-23T11:52:55.143Z,63.13
2018-01-23T11:55:22.608Z,46.80
2018-01-23T11:57:50.085Z,63.90
2018-01-23T12:00:17.541Z,57.55
2018-01-23T12:02:45.014Z,54.38
2018-01-23T12:05:12.497Z,46.63
2018-01-23T12:07:39.983Z,60.05
2018-01-23T12:10:07.449Z,53.35
2018-01-23T12:12:34.919Z,51.88
2018-01-23T12:15:02.393Z,54.17
2018-01-23T12:17:29.865Z,52.65
2018-01-23T12:19:57.365Z,44.67
2018-01-23T12:22:24.837Z,43.65
2018-01-23T12:24:52.649Z,42.05
2018-01-23T12:27:20.113Z,46.88
2018-01-23T12:29:47.584Z,46.35
2018-01-23T12:32:15.054Z,46.63
2018-01-23T12:34:42.545Z,45.90
2018-01-23T12:37:10.396Z,51.13
2018-01-23T12:39:38.662Z,54.90
2018-01-23T12:42:06.178Z,29.42
2018-01-23T12:44:33.741Z,39.58
2018-01-23T12:47:01.241Z,45.53
2018-01-23T12:49:28.757Z,38.80
2018-01-23T12:51:56.213Z,37.35
2018-01-23T12:54:23.785Z,36.45
2018-01-23T12:56:51.261Z,36.05
2018-01-23T12:59:18.740Z,34.88
2018-01-23T13:01:46.981Z,36.72
2018-01-23T13:04:14.469Z,36.03
2018-01-23T13:06:42.759Z,35.15
2018-01-23T13:09:10.230Z,25.83
2018-01-23T13:11:37.733Z,29.52
2018-01-23T13:14:05.219Z,31.08
2018-01-23T13:16:32.717Z,28.27
2018-01-23T13:19:00.201Z,33.92
2018-01-23T13:21:27.678Z,41.92
2018-01-23T13:23:55.156Z,32.17
2018-01-23T13:26:22.643Z,38.30
2018-01-23T13:28:50.138Z,32.47
2018-01-23T13:31:17.624Z,42.83
2018-01-23T13:33:45.873Z,30.95
2018-01-23T13:36:13.371Z,38.00
2018-01-23T13:38:40.857Z,36.08
2018-01-23T13:41:08.345Z,37.60
2018-01-23T13:43:35.790Z,28.80
2018-01-23T13:46:03.264Z,32.25
2018-01-23T13:48:30.741Z,28.15
2018-01-23T13:50:58.200Z,25.45
2018-01-23T13:53:26.516Z,33.50
2018-01-23T13:55:53.994Z,26.80
2018-01-23T13:58:21.528Z,31.80
2018-01-23T14:00:48.942Z,29.75
2018-01-23T14:03:16.442Z,27.55
2018-01-23T14:05:44.649Z,25.75
2018-01-23T14:08:12.142Z,35.28
2018-01-23T14:10:40.404Z,23.67
2018-01-23T14:13:07.853Z,28.10
2018-01-23T14:15:35.406Z,25.35
2018-01-23T14:18:03.253Z,29.50
2018-01-23T14:20:30.757Z,27.77
2018-01-23T14:22:58.267Z,29.52
2018-01-23T14:25:27.300Z,22.40
2018-01-23T14:27:55.061Z,26.45
2018-01-23T14:30:22.572Z,30.35
2018-01-23T14:32:50.051Z,30.35
2018-01-23T14:35:17.796Z,28.23
2018-01-23T14:37:45.772Z,31.62
2018-01-23T14:40:13.627Z,27.87
2018-01-23T14:42:41.213Z,30.55
2018-01-23T14:45:08.754Z,32.38
2018-01-23T14:47:36.235Z,27.45
2018-01-23T14:50:03.750Z,28.33
2018-01-23T14:52:31.243Z,32.65
2018-01-23T14:54:58.814Z,32.10
2018-01-23T14:57:26.442Z,26.62
2018-01-23T14:59:53.968Z,27.08
2018-01-23T15:02:21.444Z,27.17
2018-01-23T15:04:48.960Z,30.35
2018-01-23T15:07:16.510Z,31.98
2018-01-23T15:09:44.011Z,27.40
2018-01-23T15:12:11.485Z,25.48
2018-01-23T15:14:38.943Z,32.80
2018-01-23T15:17:06.518Z,34.90
2018-01-23T15:19:34.019Z,30.08
2018-01-23T15:22:02.017Z,37.30
2018-01-23T15:24:29.550Z,28.50
2018-01-23T15:26:57.265Z,24.33
2018-01-23T15:29:24.839Z,27.65
2018-01-23T15:31:52.328Z,33.03
2018-01-23T15:34:19.799Z,28.77
2018-01-23T15:36:47.252Z,30.42
2018-01-23T15:39:14.732Z,29.02
2018-01-23T15:41:42.187Z,30.70
2018-01-23T15:44:09.674Z,45.12
2018-01-23T15:46:37.231Z,25.98
2018-01-23T15:49:04.722Z,27.15
2018-01-23T15:51:32.993Z,30.08
2018-01-23T15:54:00.526Z,27.45
2018-01-23T15:56:28.714Z,24.67
2018-01-23T15:58:56.395Z,26.05
2018-01-23T16:01:24.079Z,29.10
2018-01-23T16:03:51.779Z,29.90
2018-01-23T16:06:25.377Z,23.40
2018-01-23T16:08:52.930Z,28.62
2018-01-23T16:11:20.447Z,29.83
2018-01-23T16:13:47.938Z,33.88
2018-01-23T16:16:15.462Z,27.77
2018-01-23T16:18:43.001Z,24.12
2018-01-23T16:21:10.501Z,25.70
2018-01-23T16:23:37.985Z,28.42
2018-01-23T16:26:05.490Z,26.85
2018-01-23T16:28:33.007Z,27.00
2018-01-23T16:31:00.505Z,27.40
2018-01-23T16:33:28.018Z,20.40
2018-01-23T16:35:55.496Z,25.23
2018-01-23T16:38:22.961Z,23.45
2018-01-23T16:40:51.210Z,25.90
2018-01-23T16:43:18.674Z,23.33
2018-01-23T16:45:46.138Z,29.83
2018-01-23T16:48:13.609Z,23.30
2018-01-23T16:50:41.111Z,29.12
2018-01-23T16:53:08.629Z,23.62
2018-01-23T16:55:36.131Z,24.12
2018-01-23T16:58:03.639Z,28.87
2018-01-23T17:00:32.082Z,32.05
2018-01-23T17:02:59.850Z,25.52
2018-01-23T17:05:29.513Z,24.02
2018-01-23T17:07:57.783Z,26.20
2018-01-23T17:10:26.688Z,28.50
2018-01-23T17:12:54.223Z,31.77
2018-01-23T17:15:22.136Z,27.85
2018-01-23T17:17:50.113Z,24.30
2018-01-23T17:20:21.520Z,21.73
2018-01-23T17:22:52.576Z,26.65
2018-01-23T17:25:23.029Z,18.67
2018-01-23T17:27:51.888Z,29.37
2018-01-23T17:30:19.585Z,21.70
2018-01-23T17:32:47.062Z,24.92
2018-01-23T17:35:14.542Z,21.10
2018-01-23T17:37:45.858Z,29.95
2018-01-23T17:40:13.339Z,24.87
2018-01-23T17:42:41.631Z,29.23
2018-01-23T17:45:09.561Z,24.90
2018-01-23T17:47:37.143Z,25.40
2018-01-23T17:50:04.668Z,28.65
2018-01-23T17:52:32.374Z,19.42
2018-01-23T17:54:59.926Z,27.27
2018-01-23T17:57:27.436Z,22.55
2018-01-23T17:59:54.920Z,24.70
2018-01-23T18:02:22.418Z,21.98
2018-01-23T18:04:49.877Z,25.42
2018-01-23T18:07:17.336Z,21.12
2018-01-23T18:09:44.810Z,28.15
2018-01-23T18:12:12.271Z,26.35
2018-01-23T18:14:39.744Z,18.98
2018-01-23T18:17:07.253Z,21.20
2018-01-23T18:19:34.757Z,28.20
2018-01-23T18:22:02.252Z,29.35
2018-01-23T18:24:29.703Z,21.08
2018-01-23T18:26:57.182Z,25.33
2018-01-23T18:29:25.429Z,24.30
2018-01-23T18:31:52.914Z,22.80
2018-01-23T18:34:20.382Z,20.98
2018-01-23T18:36:47.845Z,27.80
2018-01-23T18:39:15.289Z,21.27
2018-01-23T18:41:42.753Z,22.13
2018-01-23T18:44:10.215Z,17.62
2018-01-23T18:46:37.961Z,19.65
2018-01-23T18:49:05.412Z,20.10
2018-01-23T18:51:33.653Z,25.00
2018-01-23T18:54:01.168Z,22.80
2018-01-23T18:56:28.659Z,19.23
2018-01-23T18:58:56.175Z,20.08
2018-01-23T19:01:23.692Z,19.58
2018-01-23T19:03:51.189Z,16.87
2018-01-23T19:06:18.749Z,18.75
2018-01-23T19:08:46.306Z,14.18
2018-01-23T19:11:13.846Z,18.25
2018-01-23T19:13:41.604Z,16.75
2018-01-23T19:16:09.349Z,17.08
2018-01-23T19:18:38.948Z,20.05
2018-01-23T19:21:15.102Z,14.52
2018-01-23T19:23:42.687Z,21.50
2018-01-23T19:26:10.324Z,16.45
2018-01-23T19:28:37.830Z,19.02
2018-01-23T19:31:12.377Z,17.65
2018-01-23T19:33:42.062Z,18.20
2018-01-23T19:36:11.343Z,21.25
2018-01-23T19:38:54.945Z,17.52
2018-01-23T19:41:22.575Z,16.35
2018-01-23T19:43:50.544Z,14.75
2018-01-23T19:46:37.367Z,21.60
2018-01-23T19:49:07.007Z,15.02
2018-01-23T19:51:34.758Z,17.75
2018-01-23T19:54:02.270Z,19.23
2018-01-23T19:56:34.667Z,18.87
2018-01-23T19:59:02.351Z,15.80
2018-01-23T20:01:31.353Z,15.48
2018-01-23T20:04:00.713Z,18.50
2018-01-23T20:06:28.981Z,14.48
2018-01-23T20:40:47.139Z,14.87
2018-01-23T20:43:14.618Z,18.42
2018-01-23T20:45:42.151Z,19.73
2018-01-23T20:48:09.674Z,17.08
2018-01-23T20:50:37.194Z,16.75
2018-01-23T20:53:04.732Z,15.57
2018-01-23T20:55:32.325Z,14.38
2018-01-23T20:58:08.202Z,14.13
2018-01-23T21:00:37.705Z,14.90
2018-01-23T21:03:07.946Z,15.15
2018-01-23T21:05:39.697Z,17.15
2018-01-23T21:08:08.284Z,16.55
2018-01-23T21:10:38.578Z,20.58
2018-01-23T21:13:06.359Z,19.37
2018-01-23T21:15:34.671Z,15.68
2018-01-23T21:18:02.400Z,18.35
2018-01-23T21:20:29.890Z,15.70
2018-01-23T21:22:57.533Z,22.85
2018-01-23T21:25:25.176Z,20.70
2018-01-23T21:27:53.573Z,19.87
2018-01-23T21:30:21.132Z,20.55
2018-01-23T21:32:50.793Z,23.95
2018-01-23T21:35:18.454Z,24.55
2018-01-23T21:37:50.072Z,19.30
2018-01-23T21:43:14.404Z,22.50
2018-01-23T21:45:48.015Z,21.70
2018-01-23T21:48:30.555Z,23.12
2018-01-23T22:15:22.071Z,17.60
2018-01-23T22:21:22.890Z,23.52
2018-01-23T22:23:54.683Z,20.37
2018-01-23T22:26:23.140Z,25.15
2018-01-23T22:31:35.903Z,23.55
2018-01-23T22:36:52.816Z,23.33
2018-01-23T22:39:21.316Z,19.62
2018-01-23T22:41:52.473Z,24.90
2018-01-23T22:44:20.901Z,25.85
2018-01-23T22:47:02.183Z,19.40
2018-01-23T23:00:20.711Z,24.35
2018-01-23T23:05:24.491Z,22.85
2018-01-23T23:07:52.274Z,24.83
2018-01-23T23:10:21.502Z,26.15
2018-01-23T23:12:52.336Z,22.27
2018-01-23T23:15:22.743Z,25.65
2018-01-23T23:17:56.033Z,25.65
2018-01-23T23:20:24.224Z,22.80
2018-01-23T23:22:51.810Z,25.88
2018-01-23T23:25:20.075Z,27.65
2018-01-23T23:27:47.758Z,23.70
2018-01-23T23:30:15.376Z,30.35
2018-01-23T23:32:49.684Z,25.33
2018-01-23T23:35:18.372Z,25.25
2018-01-23T23:37:46.517Z,24.20
2018-01-23T23:40:14.779Z,25.20
2018-01-23T23:42:47.735Z,26.85
2018-01-23T23:45:21.051Z,23.60
2018-01-23T23:47:54.003Z,26.00
2018-01-23T23:53:09.524Z,26.87
2018-01-23T23:55:48.569Z,25.35
2018-01-23T23:58:18.684Z,25.37
